Time;durP1;ratioP1;P1;durP2;ratioP2;P2;SDS_P1;SDS_P2;PMS_P1;PMS_P2;Temp;Humidity;BMP_temperature;BMP_pressure;BME280_temperature;BME280_humidity;BME280_pressure;Samples;Min_cycle;Max_cycle;Signal;HPM_P1;HPM_P2
2021/06/29 00:01:22;;;;;;;5.62;5.08;;;25.10;99.90;;;;;;1905160;74;21086;-68
2021/06/29 00:03:49;;;;;;;8.73;4.95;;;25.10;99.90;;;;;;1907638;75;21121;-67
2021/06/29 00:06:17;;;;;;;7.08;5.10;;;25.10;99.90;;;;;;1914844;74;21036;-68
2021/06/29 00:08:44;;;;;;;8.75;4.83;;;25.10;99.90;;;;;;1930968;71;21120;-72
2021/06/29 00:11:16;;;;;;;7.55;4.58;;;25.10;99.90;;;;;;1926945;74;21581;-72
2021/06/29 00:13:42;;;;;;;6.55;5.00;;;25.10;99.90;;;;;;1914614;74;21413;-72
2021/06/29 00:16:09;;;;;;;7.17;5.33;;;25.10;99.90;;;;;;1920129;73;21041;-72
2021/06/29 00:18:37;;;;;;;5.60;4.87;;;25.00;99.90;;;;;;1952977;71;21160;-72
2021/06/29 00:21:05;;;;;;;7.67;5.12;;;24.90;99.90;;;;;;1965030;72;21540;-72
2021/06/29 00:23:37;;;;;;;6.75;4.90;;;24.90;99.90;;;;;;1957959;72;21541;-72
2021/06/29 00:26:01;;;;;;;5.45;4.80;;;24.80;99.90;;;;;;1947673;72;21291;-72
2021/06/29 00:28:29;;;;;;;5.85;5.20;;;24.80;99.90;;;;;;1959513;72;21853;-72
2021/06/29 00:30:57;;;;;;;6.22;5.62;;;24.80;99.90;;;;;;1960100;72;21149;-73
2021/06/29 00:33:24;;;;;;;11.95;5.55;;;24.80;99.90;;;;;;1953150;72;21093;-72
2021/06/29 00:35:52;;;;;;;6.55;5.05;;;24.70;99.90;;;;;;1963586;72;21058;-73
2021/06/29 00:38:19;;;;;;;6.90;5.20;;;24.70;99.90;;;;;;1963207;71;21086;-72
2021/06/29 00:40:47;;;;;;;6.70;4.90;;;24.70;99.90;;;;;;1957940;72;21473;-73
2021/06/29 00:43:15;;;;;;;7.45;5.10;;;24.60;99.90;;;;;;1949285;72;21583;-72
2021/06/29 00:45:42;;;;;;;6.65;5.15;;;24.60;99.90;;;;;;1949513;71;21410;-72
2021/06/29 00:48:10;;;;;;;6.55;5.28;;;24.50;99.90;;;;;;1951740;72;21049;-73
2021/06/29 00:50:39;;;;;;;6.90;5.10;;;24.50;99.90;;;;;;1958674;71;21159;-72
2021/06/29 00:53:06;;;;;;;5.58;5.08;;;24.50;99.90;;;;;;1958667;71;21063;-72
2021/06/29 00:55:36;;;;;;;8.48;5.05;;;24.40;99.90;;;;;;1958807;72;21066;-72
2021/06/29 00:58:05;;;;;;;7.85;5.45;;;24.40;99.90;;;;;;1954101;72;21086;-72
2021/06/29 01:00:32;;;;;;;10.08;5.72;;;24.40;99.90;;;;;;1949539;72;21219;-72
2021/06/29 01:03:00;;;;;;;7.28;5.50;;;24.40;99.90;;;;;;1949155;72;21137;-72
2021/06/29 01:05:28;;;;;;;7.10;5.42;;;24.40;99.90;;;;;;1951221;73;21150;-72
2021/06/29 01:07:55;;;;;;;6.47;5.87;;;24.40;99.90;;;;;;1953252;72;21195;-72
2021/06/29 01:10:23;;;;;;;6.37;5.75;;;24.30;99.90;;;;;;1957930;72;21165;-73
2021/06/29 01:12:50;;;;;;;7.87;6.25;;;24.30;99.90;;;;;;1953252;72;21161;-72
2021/06/29 01:15:23;;;;;;;6.28;5.42;;;24.30;99.90;;;;;;1962174;72;21618;-72
2021/06/29 01:17:55;;;;;;;7.80;6.03;;;24.30;99.90;;;;;;1964218;71;21265;-73
2021/06/29 01:20:30;;;;;;;6.65;6.00;;;24.30;99.90;;;;;;1953756;72;21147;-73
2021/06/29 01:23:03;;;;;;;8.00;5.72;;;24.30;99.90;;;;;;1953162;72;21140;-72
2021/06/29 01:25:29;;;;;;;8.38;6.00;;;24.30;99.90;;;;;;1947648;72;21638;-73
2021/06/29 01:28:18;;;;;;;7.87;5.83;;;24.20;99.90;;;;;;1953741;72;21126;-72
2021/06/29 01:33:27;;;;;;;6.67;5.65;;;24.20;99.90;;;;;;1951974;72;21247;-73
2021/06/29 01:35:55;;;;;;;7.03;6.33;;;24.20;99.90;;;;;;1945967;73;21117;-72
2021/06/29 01:38:23;;;;;;;8.63;6.28;;;24.10;99.90;;;;;;1956189;72;21692;-73
2021/06/29 01:40:52;;;;;;;6.80;5.80;;;24.20;99.90;;;;;;1961767;73;21054;-73
2021/06/29 01:43:34;;;;;;;7.20;5.97;;;24.10;99.90;;;;;;1957298;72;21145;-73
2021/06/29 01:45:58;;;;;;;7.65;6.00;;;24.20;99.90;;;;;;1969254;71;21604;-72
2021/06/29 01:48:26;;;;;;;6.60;6.00;;;24.10;99.90;;;;;;1944743;72;21642;-72
2021/06/29 01:50:55;;;;;;;7.65;5.90;;;24.10;99.90;;;;;;1952725;73;21057;-72
2021/06/29 01:53:23;;;;;;;10.53;6.28;;;24.10;99.90;;;;;;1954709;72;21086;-73
2021/06/29 01:55:51;;;;;;;8.85;6.03;;;24.10;99.90;;;;;;1951659;72;21040;-72
2021/06/29 01:58:24;;;;;;;7.20;6.35;;;24.10;99.90;;;;;;1950539;72;21128;-72
2021/06/29 02:00:48;;;;;;;11.15;6.47;;;24.10;99.90;;;;;;1954574;72;21150;-73
2021/06/29 02:03:16;;;;;;;7.25;6.55;;;24.10;99.90;;;;;;1962197;72;21163;-72
2021/06/29 02:05:43;;;;;;;8.03;6.25;;;24.10;99.90;;;;;;1964059;73;21074;-72
2021/06/29 02:08:11;;;;;;;9.45;6.25;;;24.10;99.90;;;;;;1939781;73;21105;-72
2021/06/29 02:10:38;;;;;;;7.90;6.15;;;24.10;99.90;;;;;;1957857;72;21136;-73
2021/06/29 02:13:06;;;;;;;8.15;6.40;;;24.10;99.90;;;;;;1952921;72;21357;-73
2021/06/29 02:15:34;;;;;;;7.03;6.25;;;24.10;99.90;;;;;;1960430;72;21536;-73
2021/06/29 02:18:02;;;;;;;9.95;6.70;;;24.10;99.90;;;;;;1961208;72;21239;-73
2021/06/29 02:20:30;;;;;;;11.12;6.50;;;24.10;99.90;;;;;;1971197;73;22140;-72
2021/06/29 02:22:57;;;;;;;8.53;6.05;;;24.10;99.90;;;;;;1968303;72;21074;-72
2021/06/29 02:25:25;;;;;;;8.78;6.75;;;24.10;99.90;;;;;;1962509;72;21035;-73
2021/06/29 02:27:52;;;;;;;8.63;6.80;;;24.20;99.90;;;;;;1948766;72;21105;-73
2021/06/29 02:30:20;;;;;;;7.85;6.62;;;24.20;99.90;;;;;;1948060;72;21130;-73
2021/06/29 02:32:48;;;;;;;9.63;6.92;;;24.20;99.90;;;;;;1952805;72;21065;-73
2021/06/29 02:35:15;;;;;;;11.75;7.25;;;24.20;99.90;;;;;;1938915;72;21006;-73
2021/06/29 02:37:43;;;;;;;9.20;7.00;;;24.20;99.90;;;;;;1944147;72;21195;-73
2021/06/29 02:40:11;;;;;;;9.75;7.10;;;24.10;99.90;;;;;;1948733;72;21151;-73
2021/06/29 02:42:39;;;;;;;7.60;6.40;;;24.10;99.90;;;;;;1960622;72;21139;-73
2021/06/29 02:45:08;;;;;;;14.30;7.33;;;24.20;99.90;;;;;;1938328;72;21082;-73
2021/06/29 02:47:37;;;;;;;9.05;6.53;;;24.10;99.90;;;;;;1941072;72;21132;-73
2021/06/29 02:50:06;;;;;;;8.13;6.72;;;24.20;99.90;;;;;;1956215;72;21046;-73
2021/06/29 02:52:34;;;;;;;10.85;7.53;;;24.20;99.90;;;;;;1953258;72;21499;-72
2021/06/29 02:55:04;;;;;;;8.05;6.80;;;24.10;99.90;;;;;;1955420;72;21324;-73
2021/06/29 02:57:32;;;;;;;8.73;6.87;;;24.10;99.90;;;;;;1941263;72;21210;-73
2021/06/29 03:00:00;;;;;;;8.05;7.20;;;24.20;99.90;;;;;;1941976;72;21363;-72
2021/06/29 03:02:27;;;;;;;9.45;6.78;;;24.10;99.90;;;;;;1948463;72;21051;-73
2021/06/29 03:04:55;;;;;;;9.80;6.40;;;24.20;99.90;;;;;;1947746;72;22085;-72
2021/06/29 03:07:23;;;;;;;10.05;7.15;;;24.20;99.90;;;;;;1948981;72;21130;-72
2021/06/29 03:09:50;;;;;;;10.58;6.85;;;24.20;99.90;;;;;;1958012;73;21094;-73
2021/06/29 03:12:18;;;;;;;8.68;6.83;;;24.20;99.90;;;;;;1955554;71;21057;-72
2021/06/29 03:14:46;;;;;;;8.28;6.40;;;24.20;99.90;;;;;;1952375;72;21151;-72
2021/06/29 03:17:15;;;;;;;8.70;6.80;;;24.20;99.90;;;;;;1943540;73;21135;-71
2021/06/29 03:19:42;;;;;;;8.73;6.70;;;24.20;99.90;;;;;;1952896;72;21168;-72
2021/06/29 03:22:10;;;;;;;11.38;6.92;;;24.20;99.90;;;;;;1952058;72;21074;-72
2021/06/29 03:24:37;;;;;;;8.03;6.72;;;24.20;99.90;;;;;;1951558;72;21511;-72
2021/06/29 03:27:05;;;;;;;7.70;6.87;;;24.20;99.90;;;;;;1956439;72;21058;-73
2021/06/29 03:29:33;;;;;;;9.70;7.42;;;24.20;99.90;;;;;;1951727;72;21610;-73
2021/06/29 03:32:00;;;;;;;11.50;7.28;;;24.20;99.90;;;;;;1948876;73;21071;-72
2021/06/29 03:34:28;;;;;;;9.28;7.10;;;24.20;99.90;;;;;;1947419;72;21061;-73
2021/06/29 03:36:56;;;;;;;9.80;7.20;;;24.20;99.90;;;;;;1956194;73;21087;-73
2021/06/29 03:39:23;;;;;;;11.78;7.30;;;24.20;99.90;;;;;;1947286;73;21269;-72
2021/06/29 03:41:51;;;;;;;11.30;7.67;;;24.20;99.90;;;;;;1958408;73;21078;-72
2021/06/29 03:44:18;;;;;;;10.55;7.33;;;24.20;99.90;;;;;;1946846;72;21190;-72
2021/06/29 03:46:46;;;;;;;16.77;7.00;;;24.20;99.90;;;;;;1943393;72;21496;-72
2021/06/29 03:49:13;;;;;;;16.87;7.53;;;24.20;99.90;;;;;;1958454;72;21191;-71
2021/06/29 03:51:41;;;;;;;8.70;7.47;;;24.20;99.90;;;;;;1954859;72;21079;-72
2021/06/29 03:54:08;;;;;;;11.53;6.92;;;24.10;99.90;;;;;;1960864;72;21160;-71
2021/06/29 03:56:36;;;;;;;13.98;7.50;;;24.10;99.90;;;;;;1960368;72;21063;-72
2021/06/29 03:59:07;;;;;;;11.08;7.62;;;24.20;99.90;;;;;;1959835;73;21145;-72
2021/06/29 04:01:35;;;;;;;9.30;7.12;;;24.10;99.90;;;;;;1948226;72;21110;-71
2021/06/29 04:04:03;;;;;;;8.58;7.50;;;24.20;99.90;;;;;;1957432;72;21110;-72
2021/06/29 04:06:36;;;;;;;10.40;7.28;;;24.20;99.90;;;;;;1929855;72;21058;-71
2021/06/29 04:09:08;;;;;;;12.07;7.37;;;24.10;99.90;;;;;;1951147;72;21167;-72
2021/06/29 04:11:35;;;;;;;16.73;7.33;;;24.10;99.90;;;;;;1959878;72;21046;-72
2021/06/29 04:14:04;;;;;;;11.78;7.42;;;24.10;99.90;;;;;;1957585;72;21088;-72
2021/06/29 04:16:32;;;;;;;10.60;6.67;;;24.10;99.90;;;;;;1956484;72;21468;-72
2021/06/29 04:19:00;;;;;;;16.73;7.75;;;24.10;99.90;;;;;;1952249;72;21042;-72
2021/06/29 04:21:28;;;;;;;11.18;6.65;;;24.10;99.90;;;;;;1962296;72;21053;-72
2021/06/29 04:23:55;;;;;;;9.63;6.70;;;24.20;99.90;;;;;;1953819;72;21186;-72
2021/06/29 04:26:23;;;;;;;10.18;7.45;;;24.10;99.90;;;;;;1955465;73;21019;-71
2021/06/29 04:28:51;;;;;;;14.40;7.70;;;24.10;99.90;;;;;;1948968;71;21059;-71
2021/06/29 04:31:18;;;;;;;11.73;7.42;;;24.10;99.90;;;;;;1951352;71;21525;-71
2021/06/29 04:33:46;;;;;;;16.12;7.65;;;24.00;99.90;;;;;;1948413;72;21536;-72
2021/06/29 04:36:14;;;;;;;14.45;7.40;;;24.10;99.90;;;;;;1954323;72;21833;-72
2021/06/29 04:38:42;;;;;;;17.52;7.80;;;24.10;99.90;;;;;;1950528;71;21032;-71
2021/06/29 04:41:09;;;;;;;14.25;7.85;;;24.10;99.90;;;;;;1963179;71;21066;-72
2021/06/29 04:43:39;;;;;;;23.22;7.47;;;24.00;99.90;;;;;;1963657;72;21150;-72
2021/06/29 04:46:06;;;;;;;13.60;7.33;;;24.00;99.90;;;;;;1949711;72;21164;-72
2021/06/29 04:48:39;;;;;;;10.65;6.78;;;24.00;99.90;;;;;;1954508;72;21062;-72
2021/06/29 04:51:03;;;;;;;11.65;6.53;;;24.10;99.90;;;;;;1967006;72;21523;-72
2021/06/29 04:53:31;;;;;;;13.88;6.85;;;24.10;99.90;;;;;;1953750;72;21549;-72
2021/06/29 04:55:59;;;;;;;13.38;5.90;;;24.20;99.90;;;;;;1958080;72;21481;-71
2021/06/29 04:58:26;;;;;;;13.93;6.62;;;24.10;99.90;;;;;;1945474;72;21071;-72
2021/06/29 05:00:54;;;;;;;15.48;7.10;;;24.10;99.90;;;;;;1954300;72;21039;-72
2021/06/29 05:03:22;;;;;;;13.10;6.72;;;24.10;99.90;;;;;;1953407;72;21171;-72
2021/06/29 05:05:49;;;;;;;11.20;6.22;;;24.10;99.90;;;;;;1944773;72;21707;-72
2021/06/29 05:08:17;;;;;;;12.15;6.35;;;24.00;99.90;;;;;;1952700;72;21179;-72
2021/06/29 05:10:44;;;;;;;15.13;6.35;;;24.10;99.90;;;;;;1959238;72;21134;-72
2021/06/29 05:13:12;;;;;;;9.20;6.05;;;24.10;99.90;;;;;;1956226;72;21486;-71
2021/06/29 05:15:39;;;;;;;15.00;7.70;;;24.10;99.90;;;;;;1947882;72;21397;-72
2021/06/29 05:18:07;;;;;;;15.08;8.05;;;24.10;99.90;;;;;;1963300;71;21103;-72
2021/06/29 05:20:34;;;;;;;14.45;8.03;;;24.10;99.90;;;;;;1957930;72;21066;-72
2021/06/29 05:23:02;;;;;;;10.50;7.42;;;24.10;99.90;;;;;;1958880;72;21018;-72
2021/06/29 05:25:31;;;;;;;12.20;8.10;;;24.10;99.90;;;;;;1958370;71;21120;-72
2021/06/29 05:27:58;;;;;;;14.83;8.40;;;24.00;99.90;;;;;;1964513;71;21091;-71
2021/06/29 05:30:26;;;;;;;15.85;8.20;;;24.00;99.90;;;;;;1951867;71;21175;-72
2021/06/29 05:32:53;;;;;;;8.80;7.90;;;24.00;99.90;;;;;;1948468;72;21061;-72
2021/06/29 05:35:21;;;;;;;16.50;8.00;;;24.00;99.90;;;;;;1954707;72;21074;-72
2021/06/29 05:37:48;;;;;;;14.85;7.83;;;24.00;99.90;;;;;;1959495;71;21588;-71
2021/06/29 05:40:16;;;;;;;13.48;8.45;;;24.00;99.90;;;;;;1943538;71;21175;-71
2021/06/29 05:42:43;;;;;;;11.43;7.15;;;24.00;99.90;;;;;;1955404;72;21129;-71
2021/06/29 05:45:13;;;;;;;14.15;8.28;;;24.00;99.90;;;;;;1955790;72;21473;-70
2021/06/29 05:47:42;;;;;;;9.25;7.30;;;24.00;99.90;;;;;;1957310;72;21087;-70
2021/06/29 05:50:12;;;;;;;13.05;7.40;;;24.00;99.90;;;;;;1954196;73;21062;-71
2021/06/29 05:52:41;;;;;;;12.03;6.95;;;23.90;99.90;;;;;;1961401;72;21173;-70
2021/06/29 05:55:10;;;;;;;11.50;7.10;;;23.90;99.90;;;;;;1953523;72;21086;-68
2021/06/29 05:57:38;;;;;;;11.97;6.92;;;23.90;99.90;;;;;;1952842;71;21178;-68
2021/06/29 06:00:11;;;;;;;12.20;7.20;;;23.90;99.90;;;;;;1949097;73;21443;-70
2021/06/29 06:02:39;;;;;;;10.72;7.12;;;23.90;99.90;;;;;;1961129;73;21620;-69
2021/06/29 06:05:08;;;;;;;11.50;7.72;;;23.80;99.90;;;;;;1962036;72;21083;-69
2021/06/29 06:07:38;;;;;;;12.10;7.40;;;23.90;99.90;;;;;;1955336;70;21184;-68
2021/06/29 06:10:07;;;;;;;13.62;7.75;;;23.90;99.90;;;;;;1871414;75;21190;-71
2021/06/29 06:12:35;;;;;;;12.58;6.90;;;23.90;99.90;;;;;;1872582;76;21116;-70
2021/06/29 06:15:03;;;;;;;11.78;7.30;;;23.80;99.90;;;;;;1864923;76;22583;-70
2021/06/29 06:17:31;;;;;;;13.43;6.25;;;23.80;99.90;;;;;;1871420;75;21384;-70
2021/06/29 06:19:58;;;;;;;10.48;7.12;;;23.80;99.90;;;;;;1848889;76;21116;-70
2021/06/29 06:22:26;;;;;;;13.50;6.47;;;23.90;99.90;;;;;;1853249;77;21078;-70
2021/06/29 06:24:53;;;;;;;11.73;6.45;;;23.90;99.90;;;;;;1841545;76;21112;-70
2021/06/29 06:27:21;;;;;;;11.22;6.90;;;23.90;99.90;;;;;;1885061;76;21091;-69
2021/06/29 06:29:48;;;;;;;10.00;6.75;;;24.00;99.90;;;;;;1837433;76;21017;-70
2021/06/29 06:32:16;;;;;;;11.22;6.90;;;24.00;99.90;;;;;;1886336;74;21077;-70
2021/06/29 06:34:43;;;;;;;9.58;6.53;;;24.10;99.90;;;;;;1873737;74;21213;-70
2021/06/29 06:37:11;;;;;;;10.78;6.78;;;24.10;99.90;;;;;;1875665;74;21601;-70
2021/06/29 06:39:38;;;;;;;10.80;6.85;;;24.10;99.90;;;;;;1875426;74;21173;-70
2021/06/29 06:42:06;;;;;;;11.38;6.65;;;24.10;99.90;;;;;;1885304;74;21068;-69
2021/06/29 06:44:34;;;;;;;9.43;6.53;;;24.10;99.90;;;;;;1874752;74;21111;-70
2021/06/29 06:47:01;;;;;;;7.65;5.87;;;24.10;99.90;;;;;;1891127;74;21654;-70
2021/06/29 06:49:29;;;;;;;6.37;5.60;;;24.10;99.90;;;;;;1876279;74;21041;-70
2021/06/29 06:51:56;;;;;;;9.10;6.40;;;24.20;99.90;;;;;;1904701;74;21064;-72
2021/06/29 06:54:24;;;;;;;9.43;5.65;;;24.20;99.90;;;;;;1878474;73;21086;-75
2021/06/29 06:56:53;;;;;;;12.37;6.17;;;24.20;99.90;;;;;;1871074;74;21530;-70
2021/06/29 06:59:20;;;;;;;14.68;5.85;;;24.20;99.90;;;;;;1866095;74;21143;-69
2021/06/29 07:01:48;;;;;;;8.53;6.33;;;24.20;99.90;;;;;;1823578;77;21234;-67
2021/06/29 07:04:17;;;;;;;9.75;5.78;;;24.20;99.90;;;;;;1838995;76;21125;-69
2021/06/29 07:06:45;;;;;;;10.85;6.17;;;24.30;99.90;;;;;;1843086;77;21179;-70
2021/06/29 07:09:12;;;;;;;9.45;5.42;;;24.30;99.90;;;;;;1843936;76;21188;-73
2021/06/29 07:11:40;;;;;;;7.40;5.90;;;24.40;99.90;;;;;;1844929;76;21123;-70
2021/06/29 07:14:07;;;;;;;8.80;5.40;;;24.40;99.90;;;;;;1848239;76;21746;-70
2021/06/29 07:16:35;;;;;;;11.20;5.83;;;24.50;99.90;;;;;;1845865;76;21199;-71
2021/06/29 07:19:02;;;;;;;10.95;5.72;;;24.50;99.90;;;;;;1845202;77;21218;-69
2021/06/29 07:21:30;;;;;;;8.15;5.25;;;24.50;99.90;;;;;;1853344;76;21550;-69
2021/06/29 07:23:59;;;;;;;7.72;5.17;;;24.50;99.90;;;;;;1842542;77;21160;-70
2021/06/29 07:26:27;;;;;;;8.38;5.45;;;24.50;99.90;;;;;;1855607;76;21191;-69
2021/06/29 07:28:54;;;;;;;10.00;5.47;;;24.60;99.90;;;;;;1841014;77;21206;-69
2021/06/29 07:31:22;;;;;;;10.38;5.00;;;24.60;99.90;;;;;;1854396;76;21132;-68
2021/06/29 07:33:50;;;;;;;7.67;5.20;;;24.70;99.90;;;;;;1854502;76;21248;-70
2021/06/29 07:36:19;;;;;;;7.58;5.58;;;24.70;99.90;;;;;;1855628;77;21669;-70
2021/06/29 07:38:46;;;;;;;9.00;5.20;;;24.70;99.90;;;;;;1861143;76;21140;-70
2021/06/29 07:41:17;;;;;;;7.22;5.08;;;24.80;99.90;;;;;;1853585;76;21109;-69
2021/06/29 07:43:44;;;;;;;9.30;5.22;;;24.80;99.90;;;;;;1846507;77;21219;-70
2021/06/29 07:46:12;;;;;;;5.92;5.00;;;24.80;99.90;;;;;;1872838;76;21147;-69
2021/06/29 07:48:40;;;;;;;11.68;5.00;;;24.80;99.90;;;;;;1853073;77;21094;-69
2021/06/29 07:51:09;;;;;;;10.28;5.28;;;24.80;99.90;;;;;;1848761;76;21148;-70
2021/06/29 07:53:38;;;;;;;9.08;5.22;;;24.90;99.90;;;;;;1852958;76;21089;-70
2021/06/29 07:56:06;;;;;;;8.13;5.40;;;24.90;99.90;;;;;;1848282;77;21050;-70
2021/06/29 07:58:33;;;;;;;10.53;6.50;;;24.90;99.90;;;;;;1877313;76;21081;-71
2021/06/29 08:01:01;;;;;;;6.70;6.00;;;25.00;99.90;;;;;;1857123;75;21112;-69
2021/06/29 08:03:28;;;;;;;6.58;5.90;;;25.00;99.90;;;;;;1861679;75;21435;-68
2021/06/29 08:05:56;;;;;;;10.95;7.22;;;25.00;99.90;;;;;;1857468;77;21104;-70
2021/06/29 08:08:24;;;;;;;10.65;6.90;;;25.00;99.90;;;;;;1845280;76;21125;-70
2021/06/29 08:10:51;;;;;;;11.80;7.53;;;25.10;99.90;;;;;;1831720;77;21074;-70
2021/06/29 08:13:19;;;;;;;10.03;6.87;;;25.10;99.90;;;;;;1849820;76;21069;-70
2021/06/29 08:15:46;;;;;;;11.95;6.87;;;25.10;99.90;;;;;;1871969;75;22043;-69
2021/06/29 08:18:16;;;;;;;12.10;7.80;;;25.10;99.90;;;;;;1878742;75;21241;-70
2021/06/29 08:20:44;;;;;;;10.93;7.87;;;25.10;99.90;;;;;;1856505;75;21085;-69
2021/06/29 08:23:12;;;;;;;9.98;7.08;;;25.20;99.90;;;;;;1852992;77;21176;-70
2021/06/29 08:25:39;;;;;;;14.90;7.72;;;25.20;99.90;;;;;;1855991;76;21876;-70
2021/06/29 08:28:07;;;;;;;13.43;8.10;;;25.20;99.90;;;;;;1846762;77;21128;-69
2021/06/29 08:30:34;;;;;;;12.93;8.43;;;25.20;99.90;;;;;;1848504;76;21137;-69
2021/06/29 08:33:02;;;;;;;12.15;8.70;;;25.20;99.90;;;;;;1849591;77;21078;-71
2021/06/29 08:35:30;;;;;;;11.45;9.35;;;25.20;99.90;;;;;;1845267;76;21629;-70
2021/06/29 08:37:59;;;;;;;14.28;8.78;;;25.30;99.90;;;;;;1846519;77;21653;-70
2021/06/29 08:40:26;;;;;;;10.10;8.50;;;25.30;99.90;;;;;;1850707;76;21116;-70
2021/06/29 08:42:54;;;;;;;14.53;8.58;;;25.30;99.90;;;;;;1839791;77;21097;-69
2021/06/29 08:45:22;;;;;;;11.15;9.63;;;25.30;99.90;;;;;;1852023;76;21120;-69
2021/06/29 08:47:50;;;;;;;11.53;8.30;;;25.30;99.90;;;;;;1849072;77;21207;-70
2021/06/29 08:50:18;;;;;;;12.10;9.08;;;25.30;99.90;;;;;;1844233;76;21648;-70
2021/06/29 08:52:46;;;;;;;10.82;8.73;;;25.40;99.90;;;;;;1835849;77;21106;-68
2021/06/29 08:55:14;;;;;;;10.60;8.80;;;25.40;99.90;;;;;;1859277;76;21586;-69
2021/06/29 08:57:41;;;;;;;10.53;8.68;;;25.40;99.90;;;;;;1858649;77;21161;-70
2021/06/29 09:00:12;;;;;;;10.88;9.20;;;25.50;99.90;;;;;;1833186;76;21602;-70
2021/06/29 09:02:41;;;;;;;15.20;9.88;;;25.40;99.90;;;;;;1852722;77;21069;-70
2021/06/29 09:05:26;;;;;;;15.50;10.18;;;25.50;99.90;;;;;;1855365;76;21061;-70
2021/06/29 09:08:14;;;;;;;15.48;9.28;;;25.50;99.90;;;;;;1887660;76;21501;-70
2021/06/29 09:10:43;;;;;;;11.78;8.50;;;25.50;99.90;;;;;;1842234;76;21057;-70
2021/06/29 09:13:13;;;;;;;9.25;8.03;;;25.50;99.90;;;;;;1873625;76;21018;-70
2021/06/29 09:15:45;;;;;;;10.25;7.90;;;25.50;99.90;;;;;;1886222;74;21647;-69
2021/06/29 09:18:15;;;;;;;9.90;8.10;;;25.60;99.90;;;;;;1888998;76;21181;-70
2021/06/29 09:20:52;;;;;;;10.28;7.37;;;25.60;99.90;;;;;;1882864;74;21141;-69
2021/06/29 09:23:22;;;;;;;11.20;7.35;;;25.70;99.90;;;;;;1896901;74;21534;-69
2021/06/29 09:25:56;;;;;;;9.53;7.12;;;25.70;99.90;;;;;;1879850;74;21128;-69
2021/06/29 09:28:27;;;;;;;12.35;7.90;;;25.70;99.90;;;;;;1931744;74;21108;-68
2021/06/29 09:30:58;;;;;;;8.78;7.28;;;25.70;99.90;;;;;;1902343;73;21491;-68
2021/06/29 09:33:32;;;;;;;10.32;6.50;;;25.70;99.90;;;;;;1889661;73;21087;-69
2021/06/29 09:36:03;;;;;;;8.60;5.90;;;25.70;99.90;;;;;;1886958;74;21021;-69
2021/06/29 09:38:33;;;;;;;7.12;6.03;;;25.70;99.90;;;;;;1870750;73;21111;-69
2021/06/29 09:41:07;;;;;;;9.28;7.10;;;25.70;99.90;;;;;;1864715;74;21097;-68
2021/06/29 09:43:37;;;;;;;9.20;7.17;;;25.70;99.90;;;;;;1905986;74;21541;-68
2021/06/29 09:46:07;;;;;;;9.80;7.25;;;25.50;99.90;;;;;;1889918;74;21072;-69
2021/06/29 09:48:47;;;;;;;8.30;6.45;;;25.60;99.90;;;;;;1893275;74;21196;-68
2021/06/29 09:51:20;;;;;;;15.43;7.17;;;25.60;99.90;;;;;;1909967;74;21103;-67
2021/06/29 09:53:54;;;;;;;10.35;6.45;;;25.60;99.90;;;;;;1885263;73;21480;-68
2021/06/29 09:56:24;;;;;;;10.75;6.45;;;25.60;99.90;;;;;;1879101;74;21738;-69
2021/06/29 09:58:54;;;;;;;10.32;6.97;;;25.60;99.90;;;;;;1877760;74;21563;-69
2021/06/29 10:01:26;;;;;;;11.05;7.72;;;25.60;99.90;;;;;;1886288;74;21629;-69
2021/06/29 10:03:53;;;;;;;12.25;8.43;;;25.60;99.90;;;;;;1886822;74;21193;-68
2021/06/29 10:06:23;;;;;;;9.88;7.83;;;25.50;99.90;;;;;;1868160;74;21684;-69
2021/06/29 10:08:53;;;;;;;12.55;7.75;;;25.50;99.90;;;;;;1818795;77;21678;-69
2021/06/29 10:11:23;;;;;;;9.58;7.60;;;25.50;99.90;;;;;;1837918;76;21180;-70
2021/06/29 10:13:54;;;;;;;16.07;7.35;;;25.50;99.90;;;;;;1854960;76;21116;-68
2021/06/29 10:16:25;;;;;;;9.35;7.45;;;25.60;99.90;;;;;;1837889;77;21097;-67
2021/06/29 10:21:30;;;;;;;11.45;8.53;;;25.60;99.90;;;;;;1846820;77;21107;-68
2021/06/29 10:24:02;;;;;;;8.93;7.65;;;25.50;99.90;;;;;;1853301;76;21053;-68
2021/06/29 10:26:29;;;;;;;;;;;25.50;99.90;;;;;;1834631;78;21045;-68
2021/06/29 10:28:57;;;;;;;10.00;8.38;;;25.50;99.90;;;;;;1843434;76;20169;-68
2021/06/29 10:31:30;;;;;;;10.80;8.75;;;25.50;99.90;;;;;;1849942;77;21155;-68
2021/06/29 10:34:01;;;;;;;12.58;8.73;;;25.50;99.90;;;;;;1851170;76;21162;-67
2021/06/29 10:36:32;;;;;;;13.20;9.05;;;25.40;99.90;;;;;;1859491;77;21623;-68
2021/06/29 10:39:00;;;;;;;15.20;8.88;;;25.40;99.90;;;;;;1826969;76;21203;-68
2021/06/29 10:41:34;;;;;;;11.83;9.05;;;25.40;99.90;;;;;;1860700;77;21057;-69
2021/06/29 10:44:01;;;;;;;13.53;9.55;;;25.40;99.90;;;;;;1847898;76;21187;-69
2021/06/29 10:46:32;;;;;;;10.90;9.80;;;25.40;99.90;;;;;;1861762;77;21160;-68
2021/06/29 10:49:31;;;;;;;11.55;9.83;;;25.40;99.90;;;;;;1828325;76;21129;-69
2021/06/29 10:52:04;;;;;;;16.25;10.28;;;25.30;99.90;;;;;;1859160;77;21544;-69
2021/06/29 10:54:40;;;;;;;11.48;10.30;;;25.30;99.90;;;;;;1855957;76;21500;-69
2021/06/29 10:57:11;;;;;;;10.03;9.03;;;25.30;99.90;;;;;;1865480;75;21090;-68
2021/06/29 10:59:40;;;;;;;15.35;10.72;;;25.30;99.90;;;;;;1857380;75;21586;-68
2021/06/29 11:02:10;;;;;;;10.88;9.78;;;25.20;99.90;;;;;;1865729;76;21179;-69
2021/06/29 11:04:59;;;;;;;11.88;9.20;;;25.30;99.90;;;;;;1861626;76;21528;-69
2021/06/29 11:07:32;;;;;;;10.50;8.78;;;25.30;99.90;;;;;;1837852;77;21179;-68
2021/06/29 11:10:06;;;;;;;11.85;8.95;;;25.30;99.90;;;;;;1879913;76;21041;-68
2021/06/29 11:12:35;;;;;;;11.15;7.22;;;25.20;99.90;;;;;;1837515;76;21117;-68
2021/06/29 11:15:08;;;;;;;11.55;7.10;;;25.20;99.90;;;;;;1851086;76;21100;-68
2021/06/29 11:17:52;;;;;;;11.78;7.30;;;25.30;99.90;;;;;;1847208;76;21144;-68
2021/06/29 11:20:22;;;;;;;10.30;7.50;;;25.20;99.90;;;;;;1862379;76;21135;-68
2021/06/29 11:22:55;;;;;;;11.48;7.08;;;25.20;99.90;;;;;;1831671;77;21077;-68
2021/06/29 11:25:41;;;;;;;10.58;7.60;;;25.20;99.90;;;;;;1861825;76;21158;-68
2021/06/29 11:28:25;;;;;;;7.90;6.95;;;25.20;99.90;;;;;;1831414;78;21089;-68
2021/06/29 11:31:10;;;;;;;11.03;7.17;;;25.20;99.90;;;;;;1874729;76;21116;-68
2021/06/29 11:33:45;;;;;;;12.28;7.70;;;25.20;99.90;;;;;;1856932;77;21160;-68
2021/06/29 11:36:32;;;;;;;9.00;7.37;;;25.20;99.90;;;;;;1829416;76;21096;-70
2021/06/29 11:39:02;;;;;;;8.15;6.70;;;25.20;99.90;;;;;;1828806;77;21638;-68
2021/06/29 11:41:38;;;;;;;9.08;7.15;;;25.20;99.90;;;;;;1815877;77;21395;-69
2021/06/29 11:44:11;;;;;;;8.08;6.72;;;25.20;99.90;;;;;;1844550;76;21183;-69
2021/06/29 11:47:05;;;;;;;8.33;7.40;;;25.20;99.90;;;;;;1852002;77;22352;-69
2021/06/29 11:49:47;;;;;;;8.23;6.42;;;25.20;99.90;;;;;;1833749;76;21140;-70
2021/06/29 11:52:21;;;;;;;6.67;5.83;;;25.10;99.90;;;;;;1848860;76;21184;-68
2021/06/29 11:54:57;;;;;;;6.70;5.12;;;25.10;99.90;;;;;;1850574;76;21140;-69
2021/06/29 11:57:38;;;;;;;8.45;5.28;;;25.10;99.90;;;;;;1843659;77;21054;-69
2021/06/29 12:00:38;;;;;;;6.20;4.87;;;25.10;99.90;;;;;;1846435;76;21049;-69
2021/06/29 12:03:16;;;;;;;7.60;5.00;;;25.10;99.90;;;;;;1845428;77;21610;-69
2021/06/29 12:05:44;;;;;;;7.00;5.40;;;25.10;99.90;;;;;;1852737;76;21211;-68
2021/06/29 12:08:13;;;;;;;6.53;4.97;;;24.90;99.90;;;;;;1858067;71;21098;-73
2021/06/29 12:10:47;;;;;;;12.00;6.00;;;24.90;99.90;;;;;;1935512;74;21051;-71
2021/06/29 12:13:17;;;;;;;14.50;6.87;;;24.90;99.90;;;;;;1945948;72;21197;-72
2021/06/29 12:15:52;;;;;;;9.80;6.30;;;24.90;99.90;;;;;;1974420;72;21586;-72
2021/06/29 12:18:22;;;;;;;11.22;6.25;;;24.70;99.90;;;;;;1942556;72;21589;-72
2021/06/29 12:20:57;;;;;;;12.18;5.17;;;24.50;99.90;;;;;;1903360;74;21536;-76
2021/06/29 12:23:28;;;;;;;10.15;5.12;;;24.30;99.90;;;;;;1903269;73;21161;-72
2021/06/29 12:25:58;;;;;;;10.10;4.35;;;24.20;99.90;;;;;;1904659;74;21639;-73
2021/06/29 12:28:28;;;;;;;5.47;2.77;;;24.20;99.90;;;;;;1893201;74;21076;-73
2021/06/29 12:31:04;;;;;;;8.13;3.08;;;24.20;99.90;;;;;;1899209;75;21531;-72
2021/06/29 12:33:34;;;;;;;6.60;3.12;;;24.20;99.90;;;;;;1843049;76;21015;-72
2021/06/29 12:36:05;;;;;;;8.35;3.00;;;24.10;99.90;;;;;;1875928;75;21053;-74
2021/06/29 12:38:35;;;;;;;4.55;2.83;;;24.20;99.90;;;;;;1858412;76;21120;-73
2021/06/29 12:41:06;;;;;;;4.53;3.15;;;24.20;99.90;;;;;;1892097;74;21554;-74
2021/06/29 12:43:42;;;;;;;7.00;3.52;;;24.20;99.90;;;;;;1880496;74;21059;-73
2021/06/29 12:46:26;;;;;;;6.70;4.08;;;24.20;99.90;;;;;;1884178;74;21144;-73
2021/06/29 12:49:08;;;;;;;7.00;4.33;;;24.20;99.90;;;;;;1878485;74;21128;-73
2021/06/29 12:51:45;;;;;;;11.97;5.50;;;24.20;99.90;;;;;;1889432;74;21122;-74
2021/06/29 12:54:15;;;;;;;8.93;5.60;;;24.30;99.90;;;;;;1906229;74;21160;-75
2021/06/29 12:56:48;;;;;;;11.60;5.85;;;24.30;99.90;;;;;;1885720;74;21554;-76
2021/06/29 12:59:18;;;;;;;12.15;6.62;;;24.30;99.90;;;;;;1885211;75;21116;-74